Time;durP1;ratioP1;P1;durP2;ratioP2;P2;SDS_P1;SDS_P2;PMS_P1;PMS_P2;Temp;Humidity;BMP_temperature;BMP_pressure;BME280_temperature;BME280_humidity;BME280_pressure;Samples;Min_cycle;Max_cycle;Signal;HPM_P1;HPM_P2
2021/04/30 00:02:22;;;;;;;9.07;7.35;;;;;;;;;;5062401;28;20184;-82
2021/04/30 00:04:48;;;;;;;8.02;7.03;;;;;;;;;;5063791;28;20196;-82
2021/04/30 00:07:14;;;;;;;8.90;8.00;;;;;;;;;;5072609;28;20272;-82
2021/04/30 00:09:40;;;;;;;8.77;7.68;;;;;;;;;;5088839;28;20181;-81
2021/04/30 00:12:07;;;;;;;12.65;6.00;;;;;;;;;;5068784;28;20168;-82
2021/04/30 00:14:33;;;;;;;9.32;8.48;;;;;;;;;;5079559;28;20196;-82
2021/04/30 00:16:59;;;;;;;9.63;7.38;;;;;;;;;;5075003;28;20192;-82
2021/04/30 00:19:25;;;;;;;8.05;7.10;;;;;;;;;;5077025;28;20548;-82
2021/04/30 00:21:52;;;;;;;10.65;7.70;;;;;;;;;;5062624;28;20193;-82
2021/04/30 00:24:18;;;;;;;9.95;7.28;;;;;;;;;;5058096;28;20223;-82
2021/04/30 00:26:44;;;;;;;12.07;7.15;;;;;;;;;;5079151;28;20176;-83
2021/04/30 00:29:10;;;;;;;11.77;7.60;;;;;;;;;;5075292;28;20192;-82
2021/04/30 00:31:36;;;;;;;11.77;7.03;;;;;;;;;;5069068;28;20181;-82
2021/04/30 00:34:05;;;;;;;9.48;6.70;;;;;;;;;;5063263;28;20172;-82
2021/04/30 00:36:31;;;;;;;8.60;7.05;;;;;;;;;;5074447;28;20243;-82
2021/04/30 00:38:57;;;;;;;7.90;7.18;;;;;;;;;;5071659;28;20663;-82
2021/04/30 00:41:23;;;;;;;9.15;6.90;;;;;;;;;;5065391;28;20180;-81
2021/04/30 00:43:50;;;;;;;7.43;6.55;;;;;;;;;;5074914;28;20246;-81
2021/04/30 00:46:16;;;;;;;8.23;6.97;;;;;;;;;;5099290;28;20287;-81
2021/04/30 00:48:42;;;;;;;11.60;7.95;;;;;;;;;;5108272;28;20180;-81
2021/04/30 00:51:11;;;;;;;10.33;7.30;;;;;;;;;;5106297;28;20220;-82
2021/04/30 00:53:37;;;;;;;8.82;7.93;;;;;;;;;;5106720;28;20429;-81
2021/04/30 00:56:03;;;;;;;7.70;6.50;;;;;;;;;;5099591;28;20175;-82
2021/04/30 00:58:29;;;;;;;10.40;8.18;;;;;;;;;;5105060;28;20457;-82
2021/04/30 01:00:55;;;;;;;8.63;7.72;;;;;;;;;;5100300;28;20247;-82
2021/04/30 01:03:21;;;;;;;8.32;7.53;;;;;;;;;;5107031;28;20185;-82
2021/04/30 01:05:47;;;;;;;8.95;7.45;;;;;;;;;;5096314;28;20204;-82
2021/04/30 01:08:13;;;;;;;17.55;8.40;;;;;;;;;;5097072;28;20275;-82
2021/04/30 01:10:39;;;;;;;14.52;8.85;;;;;;;;;;5101770;28;20180;-82
2021/04/30 01:13:05;;;;;;;11.15;7.93;;;;;;;;;;5107631;28;20187;-82
2021/04/30 01:15:32;;;;;;;13.13;7.60;;;;;;;;;;5099178;28;20218;-82
2021/04/30 01:18:00;;;;;;;8.70;7.20;;;;;;;;;;5089061;28;20194;-81
2021/04/30 01:20:25;;;;;;;10.80;8.05;;;;;;;;;;5099088;28;20196;-82
2021/04/30 01:22:53;;;;;;;8.35;7.57;;;;;;;;;;5097072;28;20180;-81
2021/04/30 01:25:28;;;;;;;10.48;8.40;;;;;;;;;;5097983;28;20208;-82
2021/04/30 01:27:55;;;;;;;9.05;7.47;;;;;;;;;;5110675;28;20190;-82
2021/04/30 01:30:25;;;;;;;8.80;7.90;;;;;;;;;;5100012;28;20184;-82
2021/04/30 01:32:51;;;;;;;8.73;7.93;;;;;;;;;;5111131;28;20167;-82
2021/04/30 01:35:28;;;;;;;8.60;7.63;;;;;;;;;;5107735;28;20194;-82
2021/04/30 01:37:55;;;;;;;9.65;7.30;;;;;;;;;;5101339;28;20180;-82
2021/04/30 01:40:23;;;;;;;9.10;8.00;;;;;;;;;;5105358;28;20223;-82
2021/04/30 01:43:01;;;;;;;11.35;8.70;;;;;;;;;;5109017;28;20665;-82
2021/04/30 01:45:29;;;;;;;12.93;7.30;;;;;;;;;;5093029;28;20238;-81
2021/04/30 01:47:55;;;;;;;9.65;7.22;;;;;;;;;;5109072;28;20179;-82
2021/04/30 01:50:21;;;;;;;12.50;7.80;;;;;;;;;;5094682;28;20645;-82
2021/04/30 01:52:47;;;;;;;7.78;7.07;;;;;;;;;;5095504;28;20471;-82
2021/04/30 01:55:16;;;;;;;10.65;8.23;;;;;;;;;;5099775;28;20188;-82
2021/04/30 01:57:44;;;;;;;8.43;7.63;;;;;;;;;;5096524;28;20191;-82
2021/04/30 02:00:17;;;;;;;13.35;8.23;;;;;;;;;;5095690;28;20244;-81
2021/04/30 02:02:47;;;;;;;10.15;8.57;;;;;;;;;;5092932;28;20184;-82
2021/04/30 02:05:13;;;;;;;10.27;7.60;;;;;;;;;;5098778;28;20194;-82
2021/04/30 02:07:40;;;;;;;10.15;7.80;;;;;;;;;;5106892;28;20190;-82
2021/04/30 02:10:08;;;;;;;9.00;7.50;;;;;;;;;;5084639;28;20240;-82
2021/04/30 02:12:34;;;;;;;13.48;8.30;;;;;;;;;;5108685;28;20187;-81
2021/04/30 02:15:00;;;;;;;8.60;7.65;;;;;;;;;;5087298;28;20180;-81
2021/04/30 02:17:30;;;;;;;8.98;8.07;;;;;;;;;;5104080;28;20186;-82
2021/04/30 02:19:56;;;;;;;11.20;7.75;;;;;;;;;;5101094;28;20181;-82
2021/04/30 02:22:22;;;;;;;9.15;7.90;;;;;;;;;;5091733;28;20760;-82
2021/04/30 02:24:48;;;;;;;10.95;7.90;;;;;;;;;;5109729;28;20223;-82
2021/04/30 02:27:15;;;;;;;9.13;8.10;;;;;;;;;;5109009;28;20169;-82
2021/04/30 02:29:40;;;;;;;10.38;8.07;;;;;;;;;;5099115;28;20160;-82
2021/04/30 02:32:06;;;;;;;8.20;7.40;;;;;;;;;;5101545;28;20255;-82
2021/04/30 02:34:35;;;;;;;10.05;8.40;;;;;;;;;;5098531;28;20184;-82
2021/04/30 02:37:04;;;;;;;9.95;7.80;;;;;;;;;;5113499;28;20258;-82
2021/04/30 02:39:30;;;;;;;10.35;7.90;;;;;;;;;;5096047;28;20209;-82
2021/04/30 02:41:56;;;;;;;11.55;8.40;;;;;;;;;;5101636;28;20179;-83
2021/04/30 02:44:22;;;;;;;10.02;9.02;;;;;;;;;;5080517;28;20233;-82
2021/04/30 02:46:48;;;;;;;10.17;8.30;;;;;;;;;;5075862;28;20177;-82
2021/04/30 02:49:16;;;;;;;13.77;7.80;;;;;;;;;;5060675;28;20434;-82
2021/04/30 02:51:45;;;;;;;9.55;8.40;;;;;;;;;;5089035;28;20217;-83
2021/04/30 02:54:11;;;;;;;8.30;6.72;;;;;;;;;;5078623;28;20175;-82
2021/04/30 02:56:37;;;;;;;12.20;9.03;;;;;;;;;;5087958;28;20180;-82
2021/04/30 02:59:05;;;;;;;10.95;8.73;;;;;;;;;;5080351;28;20442;-82
2021/04/30 03:01:31;;;;;;;11.77;7.55;;;;;;;;;;5084032;28;20208;-82
2021/04/30 03:03:57;;;;;;;13.52;7.03;;;;;;;;;;5084176;28;20177;-82
2021/04/30 03:06:24;;;;;;;9.07;7.97;;;;;;;;;;5086861;28;20204;-82
2021/04/30 03:08:54;;;;;;;12.88;7.53;;;;;;;;;;5088817;28;20163;-82
2021/04/30 03:11:20;;;;;;;14.55;8.38;;;;;;;;;;5067859;28;20176;-82
2021/04/30 03:13:46;;;;;;;8.65;7.32;;;;;;;;;;5080539;28;20207;-82
2021/04/30 03:16:15;;;;;;;8.43;7.53;;;;;;;;;;5064809;28;20192;-82
2021/04/30 03:18:41;;;;;;;8.70;7.78;;;;;;;;;;5073771;28;20272;-83
2021/04/30 03:21:07;;;;;;;8.70;7.80;;;;;;;;;;5070505;28;20183;-83
2021/04/30 03:23:33;;;;;;;9.85;7.80;;;;;;;;;;5078216;28;20681;-82
2021/04/30 03:26:00;;;;;;;8.32;7.43;;;;;;;;;;5076910;28;20215;-83
2021/04/30 03:28:26;;;;;;;10.07;8.50;;;;;;;;;;5088540;28;20238;-82
2021/04/30 03:30:52;;;;;;;11.57;7.97;;;;;;;;;;5066533;28;20220;-82
2021/04/30 03:33:18;;;;;;;10.73;7.85;;;;;;;;;;5076943;28;20193;-83
2021/04/30 03:35:44;;;;;;;7.72;7.00;;;;;;;;;;5082282;28;20211;-82
2021/04/30 03:38:10;;;;;;;10.03;7.40;;;;;;;;;;5063980;28;20180;-82
2021/04/30 03:40:36;;;;;;;10.77;8.60;;;;;;;;;;5059752;28;20468;-82
2021/04/30 03:43:02;;;;;;;12.17;7.63;;;;;;;;;;5072623;28;20192;-82
2021/04/30 03:45:28;;;;;;;8.88;7.45;;;;;;;;;;5082054;28;20463;-82
2021/04/30 03:47:54;;;;;;;10.00;8.45;;;;;;;;;;5073012;28;20259;-81
2021/04/30 03:50:20;;;;;;;13.25;7.60;;;;;;;;;;5081797;28;20184;-82
2021/04/30 03:52:46;;;;;;;8.75;7.68;;;;;;;;;;5073090;28;20189;-82
2021/04/30 03:55:12;;;;;;;16.85;8.82;;;;;;;;;;5085262;28;20610;-82
2021/04/30 03:57:38;;;;;;;9.57;8.68;;;;;;;;;;5060028;28;20542;-82
2021/04/30 04:00:05;;;;;;;10.93;7.93;;;;;;;;;;5070797;28;20694;-83
2021/04/30 04:02:31;;;;;;;10.45;7.32;;;;;;;;;;5060746;28;20423;-83
2021/04/30 04:04:57;;;;;;;9.35;7.75;;;;;;;;;;5075988;28;20230;-82
2021/04/30 04:07:23;;;;;;;10.50;8.30;;;;;;;;;;5062934;28;20205;-83
2021/04/30 04:09:49;;;;;;;8.73;7.45;;;;;;;;;;5063707;28;20432;-82
2021/04/30 04:12:15;;;;;;;10.07;7.90;;;;;;;;;;5062817;28;20184;-82
2021/04/30 04:14:42;;;;;;;11.77;7.75;;;;;;;;;;5068987;28;20233;-81
2021/04/30 04:17:08;;;;;;;9.50;7.22;;;;;;;;;;5061110;28;20182;-82
2021/04/30 04:19:40;;;;;;;10.27;6.70;;;;;;;;;;5060118;28;20193;-83
2021/04/30 04:22:06;;;;;;;15.32;7.55;;;;;;;;;;5073281;28;20177;-82
2021/04/30 04:24:32;;;;;;;8.88;7.97;;;;;;;;;;5091488;28;20701;-83
2021/04/30 04:26:58;;;;;;;8.50;7.60;;;;;;;;;;5071835;28;20217;-82
2021/04/30 04:29:24;;;;;;;7.00;6.30;;;;;;;;;;5052513;28;20181;-82
2021/04/30 04:31:50;;;;;;;10.95;7.78;;;;;;;;;;5074540;28;20430;-82
2021/04/30 04:34:16;;;;;;;12.93;8.27;;;;;;;;;;5071990;28;20206;-82
2021/04/30 04:36:43;;;;;;;9.90;7.07;;;;;;;;;;5078423;28;20212;-81
2021/04/30 04:39:09;;;;;;;17.48;7.70;;;;;;;;;;5084603;28;20232;-83
2021/04/30 04:41:38;;;;;;;9.07;7.60;;;;;;;;;;5066363;28;20273;-82
2021/04/30 04:44:04;;;;;;;10.50;8.18;;;;;;;;;;5080191;28;20208;-83
2021/04/30 04:46:30;;;;;;;10.00;7.90;;;;;;;;;;5060570;28;20188;-82
2021/04/30 04:48:56;;;;;;;11.40;7.85;;;;;;;;;;5062042;28;20203;-83
2021/04/30 04:51:22;;;;;;;12.70;7.75;;;;;;;;;;5046303;28;20209;-82
2021/04/30 04:53:49;;;;;;;11.63;7.28;;;;;;;;;;5086621;28;20183;-83
2021/04/30 04:56:15;;;;;;;10.63;7.78;;;;;;;;;;5071738;28;20192;-82
2021/04/30 04:58:41;;;;;;;9.63;8.20;;;;;;;;;;5068940;28;20185;-82
2021/04/30 05:01:07;;;;;;;11.13;8.35;;;;;;;;;;5059619;28;20192;-81
2021/04/30 05:03:33;;;;;;;9.57;8.40;;;;;;;;;;5077250;28;20189;-82
2021/04/30 05:05:59;;;;;;;15.23;7.40;;;;;;;;;;5087085;28;20234;-83
2021/04/30 05:08:25;;;;;;;13.02;8.40;;;;;;;;;;5080690;28;20187;-84
2021/04/30 05:10:51;;;;;;;11.25;8.60;;;;;;;;;;5080257;28;20181;-83
2021/04/30 05:13:17;;;;;;;10.73;9.13;;;;;;;;;;5072172;28;20476;-82
2021/04/30 05:15:43;;;;;;;10.80;8.40;;;;;;;;;;5091245;28;20624;-84
2021/04/30 05:18:09;;;;;;;12.27;8.75;;;;;;;;;;5058815;28;20178;-82
2021/04/30 05:20:35;;;;;;;12.52;9.43;;;;;;;;;;5056832;28;20184;-82
2021/04/30 05:23:01;;;;;;;16.85;11.60;;;;;;;;;;5077015;28;20211;-82
2021/04/30 05:25:30;;;;;;;12.65;8.48;;;;;;;;;;5081924;28;20205;-81
2021/04/30 05:27:56;;;;;;;15.65;9.05;;;;;;;;;;5084181;28;20196;-82
2021/04/30 05:30:22;;;;;;;14.52;8.02;;;;;;;;;;5048215;28;20268;-82
2021/04/30 05:32:48;;;;;;;11.02;9.02;;;;;;;;;;5059722;28;20567;-82
2021/04/30 05:35:17;;;;;;;10.20;9.18;;;;;;;;;;5071902;28;20184;-82
2021/04/30 05:37:43;;;;;;;9.55;8.55;;;;;;;;;;5060625;28;20184;-82
2021/04/30 05:40:10;;;;;;;12.68;8.63;;;;;;;;;;5085230;28;20180;-82
2021/04/30 05:42:36;;;;;;;13.35;9.25;;;;;;;;;;5086517;28;20189;-82
2021/04/30 05:45:02;;;;;;;13.38;10.00;;;;;;;;;;5072237;28;20228;-82
2021/04/30 05:47:28;;;;;;;14.27;9.73;;;;;;;;;;5066883;28;20517;-82
2021/04/30 05:49:54;;;;;;;13.00;9.00;;;;;;;;;;5080643;28;20241;-81
2021/04/30 05:52:20;;;;;;;12.38;8.65;;;;;;;;;;5081436;28;20296;-81
2021/04/30 05:54:46;;;;;;;11.97;8.70;;;;;;;;;;5067169;28;20229;-82
2021/04/30 05:57:14;;;;;;;18.33;9.15;;;;;;;;;;5071511;28;20422;-82
2021/04/30 05:59:40;;;;;;;16.13;10.23;;;;;;;;;;5076777;28;20173;-81
2021/04/30 06:02:06;;;;;;;12.75;9.35;;;;;;;;;;5053298;28;20183;-83
2021/04/30 06:04:32;;;;;;;9.70;8.65;;;;;;;;;;5052683;28;20243;-82
2021/04/30 06:06:59;;;;;;;12.93;9.57;;;;;;;;;;5077870;28;20180;-81
2021/04/30 06:09:25;;;;;;;11.13;9.93;;;;;;;;;;5067398;28;20184;-81
2021/04/30 06:11:51;;;;;;;10.48;9.18;;;;;;;;;;5056618;28;20642;-82
2021/04/30 06:14:18;;;;;;;15.35;10.13;;;;;;;;;;5061689;28;20248;-81
2021/04/30 06:16:44;;;;;;;14.43;9.85;;;;;;;;;;5076211;28;20185;-82
2021/04/30 06:19:10;;;;;;;11.48;10.07;;;;;;;;;;5071974;28;20192;-82
2021/04/30 06:21:36;;;;;;;12.38;9.60;;;;;;;;;;5072078;28;20177;-83
2021/04/30 06:24:02;;;;;;;10.65;9.55;;;;;;;;;;5061077;28;20198;-83
2021/04/30 06:26:29;;;;;;;17.20;11.30;;;;;;;;;;5075947;28;20673;-85
2021/04/30 06:28:55;;;;;;;16.65;9.65;;;;;;;;;;5075961;28;20423;-85
2021/04/30 06:31:22;;;;;;;12.35;9.73;;;;;;;;;;5077058;28;20185;-84
2021/04/30 06:33:49;;;;;;;13.15;10.20;;;;;;;;;;5059681;28;20230;-88
2021/04/30 06:36:15;;;;;;;13.57;11.05;;;;;;;;;;5048916;28;20169;-84
2021/04/30 06:38:41;;;;;;;12.05;9.95;;;;;;;;;;5070056;28;20173;-82
2021/04/30 06:41:07;;;;;;;14.38;10.15;;;;;;;;;;5057704;28;20180;-84
2021/04/30 06:43:33;;;;;;;11.88;10.13;;;;;;;;;;5077268;28;20209;-82
2021/04/30 06:45:59;;;;;;;13.88;10.00;;;;;;;;;;5062975;28;20211;-84
2021/04/30 06:48:25;;;;;;;18.23;9.90;;;;;;;;;;5074056;28;20183;-83
2021/04/30 06:50:52;;;;;;;13.20;11.50;;;;;;;;;;5051124;28;20415;-85
2021/04/30 06:53:18;;;;;;;18.42;9.80;;;;;;;;;;5066967;28;20443;-82
2021/04/30 06:55:44;;;;;;;12.32;11.02;;;;;;;;;;5065531;28;20664;-83
2021/04/30 06:58:10;;;;;;;11.23;9.75;;;;;;;;;;5073414;28;20200;-85
2021/04/30 07:00:36;;;;;;;24.77;10.57;;;;;;;;;;5071759;28;20192;-85
2021/04/30 07:03:02;;;;;;;13.75;9.55;;;;;;;;;;5059644;28;20437;-83
2021/04/30 07:05:28;;;;;;;11.93;10.30;;;;;;;;;;5081391;28;20203;-84
2021/04/30 07:07:57;;;;;;;15.07;10.93;;;;;;;;;;5079456;28;20654;-83
2021/04/30 07:10:24;;;;;;;14.38;10.55;;;;;;;;;;5087965;28;20542;-82
2021/04/30 07:12:50;;;;;;;15.27;10.82;;;;;;;;;;5061903;28;20182;-82
2021/04/30 07:15:17;;;;;;;13.10;10.60;;;;;;;;;;5082901;28;20260;-84
2021/04/30 07:17:44;;;;;;;12.50;11.05;;;;;;;;;;5057160;28;20177;-82
2021/04/30 07:20:10;;;;;;;15.82;10.93;;;;;;;;;;5053941;28;20206;-83
2021/04/30 07:22:36;;;;;;;15.10;9.32;;;;;;;;;;5064993;28;20189;-83
2021/04/30 07:25:02;;;;;;;10.10;8.98;;;;;;;;;;5079663;28;20215;-81
2021/04/30 07:27:28;;;;;;;14.55;10.68;;;;;;;;;;5078813;28;20237;-85
2021/04/30 07:29:54;;;;;;;12.45;11.18;;;;;;;;;;5054875;28;20165;-81
2021/04/30 07:32:20;;;;;;;11.73;8.85;;;;;;;;;;5066751;28;20180;-84
2021/04/30 07:34:49;;;;;;;11.20;10.00;;;;;;;;;;5067780;28;20192;-88
2021/04/30 07:37:15;;;;;;;15.05;10.35;;;;;;;;;;5074013;28;20469;-82
2021/04/30 07:39:41;;;;;;;11.30;9.75;;;;;;;;;;5073380;28;20217;-81
2021/04/30 07:42:08;;;;;;;12.73;9.85;;;;;;;;;;5075430;28;20175;-82
2021/04/30 07:44:34;;;;;;;18.75;11.82;;;;;;;;;;5082265;28;20225;-83
2021/04/30 07:47:01;;;;;;;11.82;10.18;;;;;;;;;;5059944;28;20246;-80
2021/04/30 07:49:27;;;;;;;11.07;9.77;;;;;;;;;;5053062;28;20180;-82
2021/04/30 07:51:53;;;;;;;13.57;8.98;;;;;;;;;;5055128;28;20177;-83
2021/04/30 07:54:19;;;;;;;16.02;9.60;;;;;;;;;;5064789;28;20209;-82
2021/04/30 07:56:46;;;;;;;13.10;11.70;;;;;;;;;;5054733;28;20251;-82
2021/04/30 07:59:12;;;;;;;10.43;9.20;;;;;;;;;;5050129;28;20444;-81
2021/04/30 08:01:39;;;;;;;11.50;8.95;;;;;;;;;;5064557;28;20204;-83
2021/04/30 08:04:05;;;;;;;11.77;8.93;;;;;;;;;;5073115;28;20181;-82
2021/04/30 08:06:31;;;;;;;9.15;7.78;;;;;;;;;;5059936;28;20208;-83
2021/04/30 08:08:57;;;;;;;13.60;9.27;;;;;;;;;;5072109;28;20212;-85
2021/04/30 08:11:23;;;;;;;10.95;8.88;;;;;;;;;;5062320;28;20191;-83
2021/04/30 08:13:49;;;;;;;13.25;9.25;;;;;;;;;;5080365;28;20189;-82
2021/04/30 08:16:15;;;;;;;11.98;9.73;;;;;;;;;;5068019;28;20218;-82
2021/04/30 08:18:41;;;;;;;10.75;8.63;;;;;;;;;;5058848;28;20181;-87
2021/04/30 08:21:07;;;;;;;8.52;7.72;;;;;;;;;;5091822;28;20202;-84
2021/04/30 08:23:34;;;;;;;14.75;7.85;;;;;;;;;;5066416;28;20187;-82
2021/04/30 08:26:00;;;;;;;11.02;8.75;;;;;;;;;;5072002;28;20217;-81
2021/04/30 08:28:27;;;;;;;9.60;7.82;;;;;;;;;;5085047;28;20181;-84
2021/04/30 08:30:53;;;;;;;8.73;7.40;;;;;;;;;;5071651;28;20284;-82
2021/04/30 08:33:19;;;;;;;8.63;7.72;;;;;;;;;;5073644;28;20215;-82
2021/04/30 08:35:45;;;;;;;8.07;5.95;;;;;;;;;;5062136;28;20176;-82
2021/04/30 08:38:11;;;;;;;7.43;6.35;;;;;;;;;;5061323;28;20275;-82
2021/04/30 08:40:37;;;;;;;11.13;6.80;;;;;;;;;;5060668;28;20181;-79
2021/04/30 08:43:03;;;;;;;8.80;6.85;;;;;;;;;;5079549;28;20196;-81
2021/04/30 08:45:29;;;;;;;7.78;5.97;;;;;;;;;;5059353;28;20212;-82
2021/04/30 08:47:56;;;;;;;5.93;5.20;;;;;;;;;;5080228;28;20171;-82
2021/04/30 08:50:24;;;;;;;6.38;5.18;;;;;;;;;;5065792;28;20188;-90
2021/04/30 08:52:50;;;;;;;5.30;4.47;;;;;;;;;;5076073;28;20181;-90
2021/04/30 08:55:17;;;;;;;6.82;4.65;;;;;;;;;;5073766;28;20191;-81
2021/04/30 08:57:44;;;;;;;5.75;5.07;;;;;;;;;;5090941;28;20588;-87
2021/04/30 09:00:10;;;;;;;8.43;5.85;;;;;;;;;;5091806;28;20258;-86
2021/04/30 09:02:38;;;;;;;6.63;5.85;;;;;;;;;;5077425;28;20457;-82
2021/04/30 09:05:12;;;;;;;6.10;5.50;;;;;;;;;;5083778;28;20272;-86
2021/04/30 09:07:58;;;;;;;7.97;6.15;;;;;;;;;;5066099;28;20176;-91
2021/04/30 09:10:25;;;;;;;9.07;6.53;;;;;;;;;;5050750;28;20248;-83
2021/04/30 09:13:08;;;;;;;7.20;5.15;;;;;;;;;;5062694;28;20215;-83
2021/04/30 09:15:34;;;;;;;5.32;4.82;;;;;;;;;;5067963;28;20189;-82
2021/04/30 09:18:19;;;;;;;8.60;5.93;;;;;;;;;;5060245;28;20207;-82
2021/04/30 09:20:47;;;;;;;6.05;4.88;;;;;;;;;;5073410;28;20187;-82
2021/04/30 09:23:32;;;;;;;6.38;5.78;;;;;;;;;;5073926;28;20252;-83
2021/04/30 09:25:58;;;;;;;6.80;5.68;;;;;;;;;;5074595;28;20235;-82
2021/04/30 09:28:25;;;;;;;8.88;6.63;;;;;;;;;;5075680;28;20493;-83
2021/04/30 09:30:51;;;;;;;9.50;5.25;;;;;;;;;;5088058;28;20648;-83
2021/04/30 09:33:18;;;;;;;16.15;6.03;;;;;;;;;;5058120;28;20267;-81
2021/04/30 09:35:45;;;;;;;6.32;5.70;;;;;;;;;;5067881;28;20243;-81
2021/04/30 09:38:17;;;;;;;6.40;5.35;;;;;;;;;;5070381;28;20211;-82
2021/04/30 09:40:43;;;;;;;8.07;5.05;;;;;;;;;;5070637;28;20184;-82
2021/04/30 09:43:10;;;;;;;6.55;6.00;;;;;;;;;;5087882;28;20184;-84
2021/04/30 09:45:36;;;;;;;6.20;5.57;;;;;;;;;;5069224;28;20204;-83
2021/04/30 09:48:07;;;;;;;7.88;6.18;;;;;;;;;;5060751;28;20207;-84
2021/04/30 09:50:34;;;;;;;8.98;5.38;;;;;;;;;;5084871;28;20571;-82
2021/04/30 09:53:02;;;;;;;6.60;5.25;;;;;;;;;;5070018;28;20248;-81
2021/04/30 09:55:57;;;;;;;5.45;4.80;;;;;;;;;;5084486;28;20181;-81
2021/04/30 09:58:25;;;;;;;5.82;5.20;;;;;;;;;;5049197;28;20265;-82
2021/04/30 10:00:52;;;;;;;7.63;6.10;;;;;;;;;;5072122;28;20230;-82
2021/04/30 10:03:19;;;;;;;6.50;4.68;;;;;;;;;;5059475;28;20192;-81
2021/04/30 10:06:06;;;;;;;7.13;5.07;;;;;;;;;;5058871;28;20208;-81
2021/04/30 10:08:34;;;;;;;8.73;6.30;;;;;;;;;;5075566;28;20465;-82
2021/04/30 10:11:00;;;;;;;7.15;6.32;;;;;;;;;;5060185;28;20187;-82
2021/04/30 10:13:26;;;;;;;6.78;6.18;;;;;;;;;;5055839;28;20189;-83
2021/04/30 10:15:52;;;;;;;14.83;5.53;;;;;;;;;;5088369;28;20412;-81
2021/04/30 10:18:18;;;;;;;5.88;5.30;;;;;;;;;;5086485;28;28772;-83
2021/04/30 10:20:48;;;;;;;5.40;4.97;;;;;;;;;;5085919;28;20281;-82
2021/04/30 10:23:19;;;;;;;11.80;5.72;;;;;;;;;;5064214;28;20679;-82
2021/04/30 10:25:47;;;;;;;7.38;5.15;;;;;;;;;;5065910;28;20209;-82
2021/04/30 10:28:13;;;;;;;5.80;5.20;;;;;;;;;;5072152;28;20663;-82
2021/04/30 10:30:45;;;;;;;8.27;5.47;;;;;;;;;;5090789;28;20178;-87
2021/04/30 10:33:14;;;;;;;7.03;6.32;;;;;;;;;;5056786;28;20176;-83
2021/04/30 10:35:44;;;;;;;8.52;5.53;;;;;;;;;;5066903;28;20173;-83
2021/04/30 10:38:12;;;;;;;6.18;5.50;;;;;;;;;;5056208;28;20552;-84
2021/04/30 10:40:51;;;;;;;9.75;6.28;;;;;;;;;;5053225;28;20192;-83
2021/04/30 10:43:19;;;;;;;7.40;5.88;;;;;;;;;;5072958;28;20184;-83
2021/04/30 10:45:57;;;;;;;6.00;5.40;;;;;;;;;;5064901;28;20258;-81
2021/04/30 10:48:23;;;;;;;6.10;5.28;;;;;;;;;;5060260;28;20183;-83
2021/04/30 10:50:52;;;;;;;7.22;6.15;;;;;;;;;;5062255;28;20196;-82
2021/04/30 10:53:31;;;;;;;7.93;4.88;;;;;;;;;;5080499;28;20239;-84
2021/04/30 10:55:57;;;;;;;6.50;5.30;;;;;;;;;;5061435;28;20271;-81
2021/04/30 10:58:36;;;;;;;8.43;5.75;;;;;;;;;;5071157;28;20248;-82
2021/04/30 11:01:22;;;;;;;6.25;5.35;;;;;;;;;;5076097;28;20244;-81
2021/04/30 11:04:08;;;;;;;7.78;5.70;;;;;;;;;;5074575;28;20181;-82
2021/04/30 11:06:34;;;;;;;11.45;5.25;;;;;;;;;;5088629;28;20213;-81
2021/04/30 11:09:01;;;;;;;7.82;5.65;;;;;;;;;;5051271;28;20183;-82
2021/04/30 11:11:31;;;;;;;7.97;5.30;;;;;;;;;;5065164;28;20182;-82
2021/04/30 11:14:17;;;;;;;7.43;5.35;;;;;;;;;;5076260;28;20188;-81
2021/04/30 11:16:43;;;;;;;5.13;4.53;;;;;;;;;;5072451;28;20248;-82
2021/04/30 11:19:09;;;;;;;6.07;5.50;;;;;;;;;;5076766;28;20208;-82
2021/04/30 11:21:42;;;;;;;6.65;5.45;;;;;;;;;;5063983;28;20462;-81
2021/04/30 11:24:27;;;;;;;6.65;5.70;;;;;;;;;;5078349;28;20177;-81
2021/04/30 11:27:13;;;;;;;8.38;5.55;;;;;;;;;;5079024;28;20176;-82
2021/04/30 11:29:40;;;;;;;6.65;4.95;;;;;;;;;;5049732;28;20196;-83
2021/04/30 11:32:25;;;;;;;10.35;5.80;;;;;;;;;;5076128;28;20187;-85
2021/04/30 11:34:52;;;;;;;6.88;4.88;;;;;;;;;;5075613;28;20215;-83
2021/04/30 11:37:19;;;;;;;6.57;5.47;;;;;;;;;;5081666;28;20181;-83
2021/04/30 11:39:46;;;;;;;7.32;5.53;;;;;;;;;;5077344;28;20191;-84
2021/04/30 11:42:13;;;;;;;5.43;4.95;;;;;;;;;;5078810;28;20176;-85
2021/04/30 11:44:40;;;;;;;5.75;4.68;;;;;;;;;;5091604;28;20218;-83
2021/04/30 11:47:06;;;;;;;6.80;5.13;;;;;;;;;;5097425;28;20398;-83
2021/04/30 11:49:33;;;;;;;6.82;5.55;;;;;;;;;;5096388;28;20692;-82
2021/04/30 11:51:59;;;;;;;6.63;5.15;;;;;;;;;;5113342;28;20184;-84
2021/04/30 11:54:30;;;;;;;7.07;6.03;;;;;;;;;;5082810;28;20213;-83
2021/04/30 11:56:57;;;;;;;8.85;6.10;;;;;;;;;;5096374;28;20172;-83
2021/04/30 11:59:23;;;;;;;8.02;6.20;;;;;;;;;;5094969;28;20191;-81
2021/04/30 12:01:56;;;;;;;6.00;5.50;;;;;;;;;;5092573;28;20180;-81
2021/04/30 12:04:39;;;;;;;7.65;5.55;;;;;;;;;;5102500;28;20255;-81
2021/04/30 12:07:06;;;;;;;6.22;5.25;;;;;;;;;;5102307;28;20179;-81
2021/04/30 12:09:32;;;;;;;4.70;4.28;;;;;;;;;;5107230;28;20581;-83
2021/04/30 12:12:10;;;;;;;5.70;5.10;;;;;;;;;;5101057;28;20174;-82
2021/04/30 12:14:47;;;;;;;6.20;5.55;;;;;;;;;;5106036;28;20178;-81
2021/04/30 12:17:27;;;;;;;16.88;5.35;;;;;;;;;;5101925;28;20235;-82
2021/04/30 12:19:57;;;;;;;7.80;5.32;;;;;;;;;;5103710;28;20176;-81
2021/04/30 12:22:23;;;;;;;6.70;5.22;;;;;;;;;;5108164;28;20207;-82
2021/04/30 12:24:49;;;;;;;7.43;4.97;;;;;;;;;;5108460;28;20223;-83
2021/04/30 12:27:28;;;;;;;5.38;4.88;;;;;;;;;;5112372;28;20182;-82
2021/04/30 12:29:54;;;;;;;6.28;4.95;;;;;;;;;;5109999;28;20170;-81
2021/04/30 12:32:24;;;;;;;6.65;4.50;;;;;;;;;;5096430;28;20187;-81
2021/04/30 12:34:50;;;;;;;6.63;4.10;;;;;;;;;;5102910;28;20266;-82
2021/04/30 12:37:16;;;;;;;5.90;4.70;;;;;;;;;;5109860;28;20195;-85
2021/04/30 12:39:45;;;;;;;4.15;3.75;;;;;;;;;;5098137;28;20184;-82
2021/04/30 12:42:12;;;;;;;9.80;4.50;;;;;;;;;;5096864;28;20179;-82
2021/04/30 12:44:38;;;;;;;3.90;3.20;;;;;;;;;;5091468;28;20243;-81
2021/04/30 12:47:05;;;;;;;5.40;3.60;;;;;;;;;;5065989;28;20180;-83
2021/04/30 12:49:34;;;;;;;4.22;3.83;;;;;;;;;;5069169;28;20208;-82
2021/04/30 12:52:03;;;;;;;4.70;4.00;;;;;;;;;;5090737;28;20180;-81
2021/04/30 12:54:30;;;;;;;3.90;3.60;;;;;;;;;;5069577;28;20189;-82
2021/04/30 12:56:56;;;;;;;4.10;3.67;;;;;;;;;;5067664;28;20254;-82
2021/04/30 12:59:26;;;;;;;7.43;4.95;;;;;;;;;;5074726;28;20189;-81
2021/04/30 13:01:54;;;;;;;5.88;3.92;;;;;;;;;;5075663;28;20196;-81
2021/04/30 13:04:24;;;;;;;4.50;3.83;;;;;;;;;;5086596;28;20199;-82
2021/04/30 13:06:51;;;;;;;5.15;3.90;;;;;;;;;;5087869;28;20215;-87
2021/04/30 13:09:18;;;;;;;4.72;3.90;;;;;;;;;;5069492;28;20176;-81
2021/04/30 13:12:00;;;;;;;6.28;4.43;;;;;;;;;;5078111;28;20187;-82
2021/04/30 13:14:27;;;;;;;6.07;4.22;;;;;;;;;;5083596;28;20634;-83
2021/04/30 13:16:53;;;;;;;4.30;3.60;;;;;;;;;;5078848;28;20230;-81
2021/04/30 13:19:23;;;;;;;4.40;4.00;;;;;;;;;;5064100;28;20181;-83
2021/04/30 13:21:49;;;;;;;4.72;4.22;;;;;;;;;;5079611;28;20184;-81
2021/04/30 13:24:20;;;;;;;7.18;4.07;;;;;;;;;;5068875;28;20171;-82
2021/04/30 13:27:06;;;;;;;5.10;3.75;;;;;;;;;;5069014;28;20176;-80
2021/04/30 13:29:33;;;;;;;4.97;3.50;;;;;;;;;;5072999;28;20180;-83
2021/04/30 13:32:05;;;;;;;18.45;4.55;;;;;;;;;;5067770;28;20177;-82
2021/04/30 13:34:36;;;;;;;6.13;4.28;;;;;;;;;;5059960;28;20227;-81
2021/04/30 13:37:04;;;;;;;5.25;3.83;;;;;;;;;;5090222;28;20700;-80
2021/04/30 13:39:31;;;;;;;4.50;4.10;;;;;;;;;;5086038;28;20642;-82
2021/04/30 13:41:57;;;;;;;5.93;4.10;;;;;;;;;;5085192;28;20181;-82
2021/04/30 13:44:24;;;;;;;11.43;5.05;;;;;;;;;;5083429;28;20222;-81
2021/04/30 13:46:57;;;;;;;8.15;4.93;;;;;;;;;;5101786;28;20188;-83
2021/04/30 13:49:42;;;;;;;4.85;4.20;;;;;;;;;;5105357;28;20338;-84
2021/04/30 13:52:08;;;;;;;4.88;4.38;;;;;;;;;;5093104;28;20176;-82
2021/04/30 13:54:34;;;;;;;5.67;5.17;;;;;;;;;;5101277;28;20187;-82
2021/04/30 13:57:00;;;;;;;7.30;5.10;;;;;;;;;;5086836;28;20419;-86
2021/04/30 13:59:33;;;;;;;5.50;4.50;;;;;;;;;;5100028;28;20421;-90
2021/04/30 14:02:19;;;;;;;5.60;5.10;;;;;;;;;;5095733;28;20694;-84
2021/04/30 14:04:45;;;;;;;5.03;4.53;;;;;;;;;;5090449;28;20265;-85
2021/04/30 14:07:12;;;;;;;7.53;5.43;;;;;;;;;;5103115;28;20318;-80
2021/04/30 14:09:41;;;;;;;5.72;5.15;;;;;;;;;;5098418;28;20187;-80
2021/04/30 14:12:08;;;;;;;5.38;4.90;;;;;;;;;;5112128;28;20620;-78
2021/04/30 14:14:36;;;;;;;5.38;4.88;;;;;;;;;;5106753;28;20177;-78
2021/04/30 14:17:02;;;;;;;6.68;4.90;;;;;;;;;;5100492;28;20187;-81
2021/04/30 14:19:28;;;;;;;5.90;4.63;;;;;;;;;;5100579;28;20205;-80
2021/04/30 14:21:55;;;;;;;5.05;4.60;;;;;;;;;;5113780;28;20251;-75
2021/04/30 14:24:22;;;;;;;4.97;4.53;;;;;;;;;;5109610;28;20191;-82
2021/04/30 14:26:48;;;;;;;5.50;4.97;;;;;;;;;;5108848;28;20503;-87
2021/04/30 14:29:14;;;;;;;5.33;4.80;;;;;;;;;;5103768;28;20354;-80
2021/04/30 14:31:40;;;;;;;7.07;4.90;;;;;;;;;;5103900;28;20865;-80
2021/04/30 14:34:07;;;;;;;7.03;5.18;;;;;;;;;;5090664;28;20443;-82
2021/04/30 14:36:33;;;;;;;6.75;4.55;;;;;;;;;;5096773;28;20185;-80
2021/04/30 14:38:59;;;;;;;8.88;5.20;;;;;;;;;;5102112;28;20172;-80
2021/04/30 14:41:25;;;;;;;5.87;5.27;;;;;;;;;;5099764;28;20194;-80